Aviation Digital Data Service (ADDS)

Output produced by METARs form (1358 UTC 21 August 2019)
found at http://www.aviationweather.gov/metar/data/
 
TAF RJSI 211105Z 2112/2218 19005KT 9999 FEW010 BKN030 
     BECMG 2116/2118 01004KT 
     TEMPO 2118/2121 4000 BR 
     BECMG 2200/2203 19008KT